Dungannon, Ohio
Current Conditions -  °F | °C
As of 5:53 PM on Tuesday 27 Jan 2015 (Local Time) from KPKB Reporting Station
Light Snow Light Snow  
Wind Chill: 13°   Ceiling: 3700
Heat Index: 22°   Visibility: 6mi
Dew Point: 16°   Wind: 7mph
Humidity: 78%   Direction: 300°WNW
Pressure: 30.13"   Gusts: NA
Location:  39.5678°N, 81.5815°W
Report Text: KPKB 272253Z 30006KT 6SM -SN OVC037 M06/M09 A3013 RMK AO2 SLP215 P0000 T10561089
Loading
Personal Weather Stations






























Interactive Weather Map New forecast layout! Learn more

10-Day Weather Forecast

Advertisements
Track Severe Weather on mobile